createdAt,value
2022-10-13T00:00:25.742Z,17.80
2022-10-13T00:02:28.822Z,18.70
2022-10-13T00:04:31.961Z,19.23
2022-10-13T00:06:35.582Z,19.47
2022-10-13T00:08:41.205Z,18.10
2022-10-13T00:10:44.632Z,18.10
2022-10-13T00:12:47.934Z,18.77
2022-10-13T00:14:51.096Z,19.53
2022-10-13T00:16:54.280Z,16.70
2022-10-13T00:18:57.921Z,19.20
2022-10-13T00:21:01.093Z,19.63
2022-10-13T00:23:04.218Z,21.90
2022-10-13T00:25:09.963Z,22.47
2022-10-13T00:27:13.133Z,21.80
2022-10-13T00:29:16.711Z,21.00
2022-10-13T00:31:21.332Z,21.30
2022-10-13T00:33:24.758Z,22.07
2022-10-13T00:35:28.065Z,23.83
2022-10-13T00:37:31.173Z,19.90
2022-10-13T00:39:34.836Z,20.00
2022-10-13T00:41:39.811Z,21.77
2022-10-13T00:43:53.472Z,18.43
2022-10-13T00:45:56.805Z,19.90
2022-10-13T00:48:02.732Z,21.97
2022-10-13T00:50:08.456Z,23.70
2022-10-13T00:52:11.913Z,20.10
2022-10-13T00:54:18.603Z,24.60
2022-10-13T00:56:24.601Z,23.97
2022-10-13T00:58:31.637Z,21.60
2022-10-13T01:00:36.049Z,20.23
2022-10-13T01:02:39.616Z,20.80
2022-10-13T01:04:45.173Z,22.93
2022-10-13T01:06:50.596Z,22.37
2022-10-13T01:08:54.696Z,23.17
2022-10-13T01:11:08.233Z,20.70
2022-10-13T01:13:17.894Z,20.97
2022-10-13T01:15:29.152Z,20.53
2022-10-13T01:17:38.717Z,20.87
2022-10-13T01:20:12.669Z,22.40
2022-10-13T01:22:31.962Z,21.63
2022-10-13T01:24:47.252Z,20.87
2022-10-13T01:27:28.465Z,19.00
2022-10-13T01:30:09.377Z,21.10
2022-10-13T01:32:24.137Z,20.50
2022-10-13T01:34:35.782Z,19.97
2022-10-13T01:36:46.099Z,18.73
2022-10-13T01:38:56.254Z,19.03
2022-10-13T01:41:06.156Z,20.47
2022-10-13T01:43:12.834Z,19.80
2022-10-13T01:45:18.925Z,21.40
2022-10-13T01:47:24.751Z,21.93
2022-10-13T01:49:32.924Z,22.17
2022-10-13T01:51:37.733Z,21.67
2022-10-13T01:53:41.168Z,22.10
2022-10-13T01:55:52.101Z,20.17
2022-10-13T01:57:55.326Z,21.20
2022-10-13T01:59:58.987Z,21.20
2022-10-13T02:02:10.544Z,23.20
2022-10-13T02:04:24.477Z,23.30
2022-10-13T02:06:32.333Z,23.17
2022-10-13T02:08:41.342Z,21.30
2022-10-13T02:10:52.212Z,19.97
2022-10-13T02:13:00.505Z,19.10
2022-10-13T02:15:05.570Z,20.38
2022-10-13T02:17:09.164Z,20.83
2022-10-13T02:19:17.450Z,19.60
2022-10-13T02:21:20.885Z,20.57
2022-10-13T02:23:24.846Z,19.60
2022-10-13T02:25:29.158Z,21.53
2022-10-13T02:27:32.665Z,22.10
2022-10-13T02:29:36.273Z,18.40
2022-10-13T02:31:39.973Z,20.83
2022-10-13T02:33:43.353Z,22.50
2022-10-13T02:35:48.397Z,21.20
2022-10-13T02:37:51.587Z,22.27
2022-10-13T02:39:54.893Z,20.80
2022-10-13T02:41:58.785Z,21.70
2022-10-13T02:44:01.957Z,22.92
2022-10-13T02:46:05.232Z,24.63
2022-10-13T02:48:08.673Z,25.30
2022-10-13T02:50:12.017Z,29.03
2022-10-13T02:52:16.838Z,26.47
2022-10-13T02:54:20.409Z,28.67
2022-10-13T02:56:23.545Z,25.77
2022-10-13T02:58:26.855Z,26.67
2022-10-13T03:00:30.141Z,25.73
2022-10-13T03:02:33.489Z,24.10
2022-10-13T03:04:36.652Z,26.05
2022-10-13T03:06:39.941Z,25.73
2022-10-13T03:08:44.597Z,28.80
2022-10-13T03:10:47.953Z,26.05
2022-10-13T03:12:51.181Z,23.83
2022-10-13T03:14:54.305Z,21.13
2022-10-13T03:16:57.647Z,20.85
2022-10-13T03:19:00.735Z,24.40
2022-10-13T03:21:06.536Z,23.77
2022-10-13T03:23:09.693Z,23.50
2022-10-13T03:25:14.551Z,22.48
2022-10-13T03:27:17.867Z,24.55
2022-10-13T03:29:22.581Z,21.53
2022-10-13T03:31:25.813Z,23.85
2022-10-13T03:33:29.286Z,25.30
2022-10-13T03:35:32.625Z,21.38
2022-10-13T03:37:35.873Z,21.33
2022-10-13T03:39:42.100Z,21.30
2022-10-13T03:41:46.648Z,22.80
2022-10-13T03:43:49.830Z,22.42
2022-10-13T03:45:57.344Z,23.10
2022-10-13T03:48:00.541Z,27.00
2022-10-13T03:50:04.746Z,46.22
2022-10-13T03:52:08.402Z,82.22
2022-10-13T03:54:12.987Z,62.28
2022-10-13T03:56:18.616Z,39.77
2022-10-13T03:58:24.640Z,41.00
2022-10-13T04:00:28.212Z,37.60
2022-10-13T04:02:31.399Z,26.38
2022-10-13T04:04:35.236Z,37.90
2022-10-13T04:06:38.957Z,65.80
2022-10-13T04:08:42.343Z,33.17
2022-10-13T04:10:45.838Z,37.67
2022-10-13T04:12:50.552Z,29.35
2022-10-13T04:14:55.235Z,44.72
2022-10-13T04:16:58.977Z,50.75
2022-10-13T04:19:05.150Z,41.15
2022-10-13T04:21:10.451Z,36.67
2022-10-13T04:23:13.644Z,29.65
2022-10-13T04:25:16.849Z,30.33
2022-10-13T04:27:21.089Z,28.48
2022-10-13T04:29:25.310Z,26.17
2022-10-13T04:31:31.313Z,27.77
2022-10-13T04:33:34.521Z,25.33
2022-10-13T04:35:41.062Z,31.13
2022-10-13T04:37:45.301Z,33.35
2022-10-13T04:39:48.875Z,29.90
2022-10-13T04:41:52.065Z,26.50
2022-10-13T04:43:55.710Z,27.30
2022-10-13T04:46:02.931Z,25.13
2022-10-13T04:48:07.802Z,31.95
2022-10-13T04:50:11.519Z,49.67
2022-10-13T04:52:14.851Z,48.22
2022-10-13T04:54:18.274Z,45.88
2022-10-13T04:56:21.556Z,33.13
2022-10-13T04:58:24.937Z,31.13
2022-10-13T05:00:28.775Z,29.95
2022-10-13T05:02:32.031Z,25.10
2022-10-13T05:04:36.962Z,30.30
2022-10-13T05:07:05.229Z,23.45
2022-10-13T05:09:06.501Z,26.95
2022-10-13T05:11:09.709Z,24.45
2022-10-13T05:13:12.775Z,24.08
2022-10-13T05:15:16.279Z,23.45
2022-10-13T05:17:19.836Z,26.42
2022-10-13T05:19:23.321Z,22.55
2022-10-13T05:21:29.792Z,20.67
2022-10-13T05:23:33.809Z,19.70
2022-10-13T05:25:37.856Z,22.98
2022-10-13T05:27:41.001Z,20.77
2022-10-13T05:29:44.089Z,20.20
2022-10-13T05:31:47.205Z,20.00
2022-10-13T05:33:52.073Z,22.15
2022-10-13T05:35:55.215Z,18.92
2022-10-13T05:38:00.094Z,20.92
2022-10-13T05:40:03.615Z,18.95
2022-10-13T05:42:06.789Z,19.65
2022-10-13T05:44:10.978Z,20.50
2022-10-13T05:46:14.166Z,19.95
2022-10-13T05:48:17.490Z,21.20
2022-10-13T05:50:20.672Z,21.13
2022-10-13T05:52:25.612Z,21.20
2022-10-13T05:54:32.668Z,20.92
2022-10-13T05:56:40.256Z,23.65
2022-10-13T05:58:49.201Z,20.98
2022-10-13T06:00:55.089Z,22.25
2022-10-13T06:03:05.019Z,23.23
2022-10-13T06:05:13.617Z,22.15
2022-10-13T06:07:16.881Z,21.65
2022-10-13T06:09:20.477Z,23.73
2022-10-13T06:11:25.005Z,22.85
2022-10-13T06:13:28.179Z,22.60
2022-10-13T06:15:31.354Z,23.90
2022-10-13T06:17:38.072Z,25.02
2022-10-13T06:19:41.253Z,26.45
2022-10-13T06:21:44.724Z,25.53
2022-10-13T06:23:48.328Z,26.00
2022-10-13T06:25:52.305Z,25.17
2022-10-13T06:27:57.952Z,22.90
2022-10-13T06:30:01.143Z,20.80
2022-10-13T06:32:04.545Z,22.63
2022-10-13T06:34:07.879Z,22.60
2022-10-13T06:36:11.638Z,21.40
2022-10-13T06:38:14.785Z,21.63
2022-10-13T06:40:18.532Z,19.73
2022-10-13T06:42:22.278Z,17.53
2022-10-13T06:44:27.568Z,17.23
2022-10-13T06:46:30.756Z,18.60
2022-10-13T06:48:34.031Z,17.10
2022-10-13T06:50:42.050Z,17.60
2022-10-13T06:52:46.385Z,17.73
2022-10-13T06:54:50.143Z,17.10
2022-10-13T06:56:53.597Z,16.03
2022-10-13T06:58:56.949Z,15.30
2022-10-13T07:01:01.613Z,13.20
2022-10-13T07:03:05.364Z,14.00
2022-10-13T07:05:09.504Z,12.70
2022-10-13T07:07:12.662Z,11.77
2022-10-13T07:09:16.081Z,14.20
2022-10-13T07:11:19.654Z,12.33
2022-10-13T07:13:23.179Z,11.80
2022-10-13T07:15:27.180Z,11.77
2022-10-13T07:17:32.024Z,12.10
2022-10-13T07:19:35.526Z,10.20
2022-10-13T07:21:38.980Z,9.93
2022-10-13T07:23:42.873Z,10.83
2022-10-13T07:25:46.443Z,10.93
2022-10-13T07:27:50.136Z,9.20
2022-10-13T07:29:53.578Z,10.23
2022-10-13T07:31:57.156Z,9.53
2022-10-13T07:34:02.608Z,8.10
2022-10-13T07:36:06.608Z,9.83
2022-10-13T07:38:10.420Z,9.83
2022-10-13T07:40:14.073Z,11.07
2022-10-13T07:42:17.748Z,9.10
2022-10-13T07:44:21.508Z,9.50
2022-10-13T07:46:25.511Z,9.30
2022-10-13T07:48:29.621Z,9.90
2022-10-13T07:50:34.495Z,9.53
2022-10-13T07:52:38.376Z,8.20
2022-10-13T07:54:41.906Z,8.20
2022-10-13T07:56:45.508Z,9.73
2022-10-13T07:58:49.454Z,8.90
2022-10-13T08:00:57.564Z,8.97
2022-10-13T08:03:01.108Z,10.80
2022-10-13T08:05:04.889Z,10.37
2022-10-13T08:07:09.880Z,10.40
2022-10-13T08:09:13.583Z,10.27
2022-10-13T08:11:17.662Z,10.60
2022-10-13T08:13:21.248Z,11.27
2022-10-13T08:15:24.753Z,11.40
2022-10-13T08:17:28.483Z,9.60
2022-10-13T08:19:31.883Z,12.00
2022-10-13T08:24:00.205Z,10.23
2022-10-13T08:26:03.721Z,14.67
2022-10-13T08:28:08.748Z,13.17
2022-10-13T08:30:12.955Z,13.00
2022-10-13T08:32:16.698Z,13.33
2022-10-13T08:34:20.471Z,13.23
2022-10-13T08:36:25.082Z,12.43
2022-10-13T08:38:28.556Z,13.20
2022-10-13T08:40:33.404Z,13.23
2022-10-13T08:42:37.246Z,16.10
2022-10-13T08:47:10.553Z,11.63
2022-10-13T08:49:15.935Z,13.53
2022-10-13T08:51:20.521Z,12.57
2022-10-13T08:53:27.500Z,13.30
2022-10-13T08:55:35.245Z,13.23
2022-10-13T08:57:38.792Z,14.27
2022-10-13T08:59:42.373Z,14.50
2022-10-13T09:01:49.468Z,13.53
2022-10-13T09:03:54.417Z,15.90
2022-10-13T09:06:01.709Z,16.03
2022-10-13T09:08:06.259Z,15.27
2022-10-13T09:10:12.197Z,15.90
2022-10-13T09:12:19.205Z,14.40
2022-10-13T09:14:24.146Z,14.63
2022-10-13T09:16:31.782Z,14.60
2022-10-13T09:18:37.483Z,14.53
2022-10-13T09:20:41.028Z,13.97
2022-10-13T09:22:44.886Z,14.70
2022-10-13T09:24:48.703Z,15.00
2022-10-13T09:26:54.092Z,15.27
2022-10-13T09:28:59.104Z,14.77
2022-10-13T09:31:04.396Z,15.17
2022-10-13T09:33:16.452Z,14.73
2022-10-13T09:35:22.904Z,14.70
2022-10-13T09:37:26.970Z,14.70
2022-10-13T09:39:31.184Z,14.23
2022-10-13T09:41:35.193Z,13.10
2022-10-13T09:43:39.492Z,14.33
2022-10-13T09:45:45.286Z,14.70
2022-10-13T09:47:52.115Z,15.87
2022-10-13T09:50:07.430Z,13.37
2022-10-13T09:52:18.437Z,13.20
2022-10-13T09:54:27.418Z,12.07
2022-10-13T09:56:33.783Z,13.73
2022-10-13T09:58:39.594Z,13.27
2022-10-13T10:00:43.801Z,11.80
2022-10-13T10:02:51.704Z,14.27
2022-10-13T10:04:55.444Z,14.40
2022-10-13T10:06:58.936Z,14.77
2022-10-13T10:09:05.570Z,13.10
2022-10-13T10:11:12.691Z,13.57
2022-10-13T10:13:16.688Z,13.67
2022-10-13T10:15:22.881Z,14.30
2022-10-13T10:17:30.601Z,12.93
2022-10-13T10:19:44.067Z,13.50
2022-10-13T10:21:51.718Z,12.43
2022-10-13T10:23:57.536Z,13.77
2022-10-13T10:26:02.916Z,12.67
2022-10-13T10:28:22.624Z,12.20
2022-10-13T10:30:26.117Z,9.80
2022-10-13T10:32:30.817Z,12.27
2022-10-13T10:34:42.245Z,12.03
2022-10-13T10:36:51.407Z,12.53
2022-10-13T10:38:57.124Z,13.20
2022-10-13T10:41:05.278Z,13.20
2022-10-13T10:43:20.095Z,12.90
2022-10-13T10:45:24.849Z,15.47
2022-10-13T10:47:30.599Z,12.60
2022-10-13T10:49:35.353Z,14.30
2022-10-13T10:51:41.024Z,13.27
2022-10-13T10:53:50.987Z,13.63
2022-10-13T10:55:56.208Z,14.07
2022-10-13T10:58:06.716Z,14.10
2022-10-13T11:00:14.294Z,14.73
2022-10-13T11:02:27.362Z,13.67
2022-10-13T11:04:35.660Z,15.93
2022-10-13T11:06:40.683Z,16.20
2022-10-13T11:08:46.759Z,15.50
2022-10-13T11:10:50.231Z,15.47
2022-10-13T11:13:26.389Z,15.33
2022-10-13T11:15:33.062Z,16.20
2022-10-13T11:17:37.993Z,14.23
2022-10-13T11:19:42.120Z,15.20
2022-10-13T11:22:00.413Z,14.00
2022-10-13T11:24:05.266Z,12.97
2022-10-13T11:26:28.808Z,14.23
2022-10-13T11:28:48.495Z,13.40
2022-10-13T11:30:52.482Z,11.73
2022-10-13T11:32:59.083Z,12.90
2022-10-13T11:35:03.696Z,12.40
2022-10-13T11:37:17.582Z,11.87
2022-10-13T11:39:45.167Z,11.80
2022-10-13T11:41:54.222Z,11.90
2022-10-13T11:44:03.011Z,11.30
2022-10-13T11:46:21.302Z,12.07
2022-10-13T11:48:42.668Z,12.40
2022-10-13T11:50:51.620Z,11.53
2022-10-13T11:53:10.179Z,11.50
2022-10-13T11:55:14.491Z,10.53
2022-10-13T11:57:23.938Z,9.30
2022-10-13T11:59:29.481Z,11.13
2022-10-13T12:01:32.993Z,8.73
2022-10-13T12:03:38.098Z,11.00
2022-10-13T12:05:41.856Z,11.60
2022-10-13T12:07:45.045Z,12.23
2022-10-13T12:09:51.442Z,11.77
2022-10-13T12:11:59.225Z,10.57
2022-10-13T12:14:04.774Z,11.40
2022-10-13T12:16:09.414Z,13.60
2022-10-13T12:18:22.965Z,10.97
2022-10-13T12:20:27.745Z,11.90
2022-10-13T12:22:31.253Z,10.60
2022-10-13T12:24:34.818Z,9.77
2022-10-13T12:26:38.983Z,10.10
2022-10-13T12:28:51.163Z,10.63
2022-10-13T12:30:57.431Z,7.97
2022-10-13T12:33:03.845Z,9.40
2022-10-13T12:35:19.272Z,10.33
2022-10-13T12:37:27.221Z,9.30
2022-10-13T12:39:33.601Z,9.20
2022-10-13T12:41:38.196Z,8.97
2022-10-13T12:43:41.859Z,8.47
2022-10-13T12:45:45.416Z,7.27
2022-10-13T12:47:51.857Z,8.50
2022-10-13T12:50:21.773Z,8.80
2022-10-13T12:52:26.057Z,7.97
2022-10-13T12:54:30.909Z,8.20
2022-10-13T12:56:35.121Z,9.77
2022-10-13T12:58:38.888Z,9.20
2022-10-13T13:00:43.011Z,9.40
2022-10-13T13:02:53.200Z,10.23
2022-10-13T13:04:56.413Z,9.30
2022-10-13T13:07:03.053Z,8.57
2022-10-13T13:09:30.976Z,8.53
2022-10-13T13:11:39.083Z,8.30
2022-10-13T13:13:42.261Z,7.83
2022-10-13T13:15:45.703Z,8.73
2022-10-13T13:17:58.256Z,8.40
2022-10-13T13:20:02.249Z,10.53
2022-10-13T13:22:06.263Z,9.90
2022-10-13T13:24:21.897Z,9.70
2022-10-13T13:26:31.850Z,9.20
2022-10-13T13:28:35.535Z,9.33
2022-10-13T13:30:39.147Z,8.20
2022-10-13T13:32:42.261Z,9.93
2022-10-13T13:34:47.362Z,10.47
2022-10-13T13:36:51.120Z,9.47
2022-10-13T13:38:55.382Z,9.20
2022-10-13T13:41:03.101Z,10.67
2022-10-13T13:43:07.385Z,8.87
2022-10-13T13:45:13.856Z,8.57
2022-10-13T13:47:18.817Z,7.97
2022-10-13T13:49:22.476Z,9.30
2022-10-13T13:51:27.340Z,8.40
2022-10-13T13:53:30.825Z,8.13
2022-10-13T13:55:34.299Z,8.67
2022-10-13T13:57:37.493Z,8.67
2022-10-13T13:59:41.287Z,8.53
2022-10-13T14:01:44.819Z,9.80
2022-10-13T14:03:48.323Z,9.50
2022-10-13T14:05:51.662Z,10.73
2022-10-13T14:07:58.014Z,9.33
2022-10-13T14:10:02.358Z,10.47
2022-10-13T14:12:06.266Z,10.97
2022-10-13T14:14:09.656Z,10.47
2022-10-13T14:16:17.500Z,10.67
2022-10-13T14:18:21.225Z,10.50
2022-10-13T14:20:24.472Z,11.47
2022-10-13T14:22:28.041Z,10.77
2022-10-13T14:24:32.552Z,11.00
2022-10-13T14:26:35.926Z,11.87
2022-10-13T14:28:42.362Z,11.40
2022-10-13T14:30:46.701Z,12.50
2022-10-13T14:32:50.104Z,13.47
2022-10-13T14:34:53.596Z,14.10
2022-10-13T14:36:56.833Z,13.13
2022-10-13T14:38:59.880Z,13.30
2022-10-13T14:41:06.091Z,14.43
2022-10-13T14:43:09.569Z,15.43
2022-10-13T14:45:13.440Z,14.63
2022-10-13T14:47:16.575Z,14.43
2022-10-13T14:49:19.874Z,16.57
2022-10-13T14:51:23.489Z,15.03
2022-10-13T14:53:28.348Z,14.60
2022-10-13T14:55:33.043Z,16.23
2022-10-13T14:57:37.563Z,16.20
2022-10-13T14:59:41.012Z,15.27
2022-10-13T15:01:44.683Z,17.47
2022-10-13T15:03:48.238Z,14.83
2022-10-13T15:05:51.432Z,14.43
2022-10-13T15:07:54.801Z,14.77
2022-10-13T15:10:05.523Z,15.70
2022-10-13T15:12:09.494Z,15.77
2022-10-13T15:14:13.975Z,15.43
2022-10-13T15:16:19.788Z,15.57
2022-10-13T15:18:27.066Z,16.00
2022-10-13T15:20:32.216Z,16.70
2022-10-13T15:22:35.301Z,18.10
2022-10-13T15:24:39.993Z,17.70
2022-10-13T15:26:43.139Z,15.70
2022-10-13T15:28:48.664Z,17.57
2022-10-13T15:30:53.620Z,16.00
2022-10-13T15:32:57.008Z,16.90
2022-10-13T15:35:00.641Z,18.00
2022-10-13T15:37:03.781Z,18.83
2022-10-13T15:39:07.629Z,20.40
2022-10-13T15:41:12.100Z,17.93
2022-10-13T15:43:15.944Z,20.57
2022-10-13T15:45:19.614Z,18.37
2022-10-13T15:47:24.209Z,17.13
2022-10-13T15:49:27.924Z,17.30
2022-10-13T15:51:33.924Z,15.80
2022-10-13T15:53:37.358Z,17.60
2022-10-13T15:55:41.363Z,17.20
2022-10-13T15:57:45.233Z,18.60
2022-10-13T15:59:48.360Z,18.43
2022-10-13T16:01:51.603Z,17.93
2022-10-13T16:03:56.857Z,17.87
2022-10-13T16:06:03.623Z,17.20
2022-10-13T16:08:07.106Z,17.50
2022-10-13T16:10:12.244Z,17.70
2022-10-13T16:12:15.872Z,17.00
2022-10-13T16:14:19.123Z,17.73
2022-10-13T16:16:23.154Z,17.90
2022-10-13T16:18:31.335Z,18.80
2022-10-13T16:20:38.854Z,17.20
2022-10-13T16:22:42.324Z,18.77
2022-10-13T16:24:45.617Z,17.43
2022-10-13T16:26:49.003Z,17.00
2022-10-13T16:28:56.137Z,19.23
2022-10-13T16:31:03.466Z,19.37
2022-10-13T16:33:06.705Z,22.03
2022-10-13T16:35:10.462Z,19.20
2022-10-13T16:37:15.212Z,18.10
2022-10-13T16:39:18.797Z,22.93
2022-10-13T16:41:22.471Z,24.97
2022-10-13T16:43:25.764Z,26.80
2022-10-13T16:45:47.728Z,24.23
2022-10-13T16:47:52.517Z,22.80
2022-10-13T16:49:55.807Z,22.50
2022-10-13T16:51:58.993Z,23.30
2022-10-13T16:54:04.570Z,23.40
2022-10-13T16:56:08.670Z,22.83
2022-10-13T16:58:12.365Z,20.33
2022-10-13T17:00:15.952Z,20.97
2022-10-13T17:02:19.462Z,20.07
2022-10-13T17:04:23.031Z,19.83
2022-10-13T17:06:29.311Z,20.67
2022-10-13T17:08:32.831Z,21.87
2022-10-13T17:10:38.024Z,21.97
2022-10-13T17:12:41.726Z,21.40
2022-10-13T17:14:46.157Z,19.83
2022-10-13T17:16:52.134Z,20.07
2022-10-13T17:18:58.898Z,21.60
2022-10-13T17:21:04.334Z,21.10
2022-10-13T17:23:07.493Z,23.00
2022-10-13T17:25:11.186Z,33.47
2022-10-13T17:27:16.448Z,35.90
2022-10-13T17:29:19.718Z,34.43
2022-10-13T17:31:24.923Z,27.40
2022-10-13T17:33:28.196Z,26.33
2022-10-13T17:35:32.756Z,26.20
2022-10-13T17:37:35.958Z,27.20
2022-10-13T17:39:40.311Z,34.40
2022-10-13T17:41:43.805Z,36.77
2022-10-13T17:43:48.890Z,62.00
2022-10-13T17:45:52.149Z,74.53
2022-10-13T17:47:58.676Z,49.53
2022-10-13T17:50:02.039Z,37.30
2022-10-13T17:52:05.292Z,30.80
2022-10-13T17:54:13.059Z,33.27
2022-10-13T17:56:21.063Z,29.53
2022-10-13T17:58:24.402Z,28.30
2022-10-13T18:02:29.457Z,26.17
2022-10-13T18:04:32.741Z,27.00
2022-10-13T18:06:39.973Z,27.10
2022-10-13T18:08:43.546Z,27.20
2022-10-13T18:11:07.176Z,27.70
2022-10-13T18:13:10.992Z,29.90
2022-10-13T18:15:14.192Z,25.40
2022-10-13T18:17:17.386Z,30.00
2022-10-13T18:19:22.916Z,28.33
2022-10-13T18:21:27.233Z,25.83
2022-10-13T18:23:32.609Z,30.50
2022-10-13T18:25:38.730Z,82.57
2022-10-13T18:27:41.978Z,36.77
2022-10-13T18:29:45.157Z,41.87
2022-10-13T18:31:48.833Z,35.27
2022-10-13T18:33:52.493Z,32.30
2022-10-13T18:35:56.926Z,38.27
2022-10-13T18:38:00.009Z,36.80
2022-10-13T18:40:03.101Z,31.83
2022-10-13T18:42:06.957Z,26.70
2022-10-13T18:44:10.172Z,23.87
2022-10-13T18:46:13.521Z,26.60
2022-10-13T18:48:16.756Z,25.43
2022-10-13T18:50:19.980Z,26.67
2022-10-13T18:52:24.750Z,28.47
2022-10-13T18:54:28.888Z,30.10
2022-10-13T18:56:33.511Z,26.13
2022-10-13T18:58:37.025Z,26.77
2022-10-13T19:00:40.667Z,27.57
2022-10-13T19:02:43.894Z,26.47
2022-10-13T19:04:47.735Z,25.47
2022-10-13T19:06:51.148Z,27.37
2022-10-13T19:08:58.149Z,25.70
2022-10-13T19:11:01.635Z,26.47
2022-10-13T19:13:06.014Z,25.13
2022-10-13T19:15:10.311Z,25.70
2022-10-13T19:17:13.702Z,23.80
2022-10-13T19:19:17.121Z,24.53
2022-10-13T19:21:21.713Z,28.40
2022-10-13T19:23:29.179Z,25.97
2022-10-13T19:25:34.509Z,26.77
2022-10-13T19:27:37.691Z,27.87
2022-10-13T19:29:41.140Z,28.30
2022-10-13T19:31:45.023Z,29.20
2022-10-13T19:33:50.032Z,29.57
2022-10-13T19:35:54.036Z,27.77
2022-10-13T19:37:57.317Z,30.40
2022-10-13T19:40:00.503Z,25.60
2022-10-13T19:42:05.245Z,28.30
2022-10-13T19:44:08.828Z,27.13
2022-10-13T19:46:12.237Z,26.00
2022-10-13T19:48:15.772Z,29.17
2022-10-13T19:50:19.122Z,29.97
2022-10-13T19:52:24.317Z,28.37
2022-10-13T19:54:32.912Z,30.03
2022-10-13T19:56:38.148Z,30.53
2022-10-13T19:58:45.771Z,30.43
2022-10-13T20:00:50.139Z,30.77
2022-10-13T20:02:53.306Z,29.57
2022-10-13T20:04:56.408Z,31.47
2022-10-13T20:07:00.578Z,27.67
2022-10-13T20:09:04.558Z,29.00
2022-10-13T20:11:09.352Z,33.70
2022-10-13T20:13:13.197Z,31.20
2022-10-13T20:15:17.778Z,33.73
2022-10-13T20:17:21.485Z,39.00
2022-10-13T20:19:25.341Z,31.27
2022-10-13T20:21:29.385Z,31.03
2022-10-13T20:23:33.440Z,32.90
2022-10-13T20:25:38.094Z,35.73
2022-10-13T20:27:41.814Z,28.50
2022-10-13T20:29:44.898Z,28.60
2022-10-13T20:31:49.371Z,27.03
2022-10-13T20:33:56.442Z,27.90
2022-10-13T20:36:00.859Z,40.60
2022-10-13T20:38:04.149Z,45.57
2022-10-13T20:40:08.311Z,52.43
2022-10-13T20:42:11.498Z,38.60
2022-10-13T20:44:14.735Z,35.63
2022-10-13T20:46:20.092Z,39.67
2022-10-13T20:48:24.695Z,43.03
2022-10-13T20:50:27.829Z,43.73
2022-10-13T20:52:31.346Z,37.53
2022-10-13T20:54:34.491Z,35.07
2022-10-13T20:56:37.801Z,30.50
2022-10-13T20:58:45.855Z,32.00
2022-10-13T21:00:49.215Z,31.30
2022-10-13T21:02:52.591Z,32.67
2022-10-13T21:04:57.279Z,32.40
2022-10-13T21:07:00.773Z,30.87
2022-10-13T21:09:04.993Z,30.63
2022-10-13T21:11:10.184Z,29.60
2022-10-13T21:13:14.414Z,29.47
2022-10-13T21:15:17.656Z,31.17
2022-10-13T21:17:20.927Z,33.07
2022-10-13T21:19:24.284Z,32.93
2022-10-13T21:21:30.664Z,32.20
2022-10-13T21:23:34.621Z,31.33
2022-10-13T21:25:38.575Z,30.10
2022-10-13T21:27:43.527Z,28.63
2022-10-13T21:29:46.816Z,31.40
2022-10-13T21:31:50.244Z,31.40
2022-10-13T21:33:53.814Z,32.30
2022-10-13T21:35:57.056Z,31.77
2022-10-13T21:38:01.669Z,30.33
2022-10-13T21:40:05.533Z,29.07
2022-10-13T21:42:08.766Z,30.93
2022-10-13T21:44:14.921Z,30.70
2022-10-13T21:46:20.768Z,29.40
2022-10-13T21:48:23.965Z,27.50
2022-10-13T21:50:29.144Z,28.07
2022-10-13T21:52:35.424Z,27.20
2022-10-13T21:54:40.424Z,30.60
2022-10-13T21:56:43.814Z,27.93
2022-10-13T21:58:47.520Z,28.60
2022-10-13T22:00:50.730Z,28.13
2022-10-13T22:02:53.950Z,25.93
2022-10-13T22:04:57.089Z,28.07
2022-10-13T22:07:00.467Z,29.77
2022-10-13T22:09:06.589Z,28.60
2022-10-13T22:11:13.513Z,30.67
2022-10-13T22:13:16.658Z,29.60
2022-10-13T22:15:20.323Z,29.40
2022-10-13T22:17:24.161Z,29.50
2022-10-13T22:19:27.508Z,29.53
2022-10-13T22:21:34.006Z,29.03
2022-10-13T22:23:37.292Z,28.40
2022-10-13T22:25:45.358Z,29.57
2022-10-13T22:27:49.813Z,27.83
2022-10-13T22:29:54.673Z,26.33
2022-10-13T22:31:58.545Z,29.13
2022-10-13T22:34:02.762Z,28.70
2022-10-13T22:36:09.568Z,29.93
2022-10-13T22:38:12.853Z,27.43
2022-10-13T22:40:16.114Z,26.20
2022-10-13T22:42:19.534Z,29.10
2022-10-13T22:44:24.086Z,26.57
2022-10-13T22:46:29.319Z,26.77
2022-10-13T22:48:38.237Z,27.80
2022-10-13T22:50:43.690Z,26.60
2022-10-13T22:52:47.298Z,24.90
2022-10-13T22:54:50.461Z,25.87
2022-10-13T22:56:53.646Z,27.03
2022-10-13T22:58:58.865Z,26.37
2022-10-13T23:01:08.693Z,25.93
2022-10-13T23:03:14.431Z,26.67
2022-10-13T23:05:17.728Z,27.70
2022-10-13T23:07:21.371Z,25.97
2022-10-13T23:09:24.744Z,26.20
2022-10-13T23:11:28.419Z,24.97
2022-10-13T23:13:32.064Z,24.70
2022-10-13T23:15:35.357Z,24.50
2022-10-13T23:17:39.930Z,25.20
2022-10-13T23:19:43.032Z,24.57
2022-10-13T23:21:46.281Z,27.63
2022-10-13T23:23:49.538Z,25.10
2022-10-13T23:25:52.603Z,27.63
2022-10-13T23:27:55.674Z,25.30
2022-10-13T23:29:58.823Z,25.77
2022-10-13T23:32:05.080Z,25.27
2022-10-13T23:34:12.803Z,27.67
2022-10-13T23:36:17.742Z,27.57
2022-10-13T23:38:21.350Z,27.70
2022-10-13T23:40:24.617Z,25.20
2022-10-13T23:42:27.734Z,24.90
2022-10-13T23:44:31.171Z,26.57
2022-10-13T23:46:34.393Z,25.30
2022-10-13T23:48:37.980Z,26.67
2022-10-13T23:50:42.626Z,25.10
2022-10-13T23:52:45.823Z,24.67
2022-10-13T23:54:49.038Z,25.00
2022-10-13T23:56:52.292Z,27.57
2022-10-13T23:58:55.660Z,23.80
